sensor_id;sensor_type;location;lat;lon;timestamp;P1;durP1;ratioP1;P2;durP2;ratioP2
58516;SDS011;44308;50.810;0.284;2022-11-14T00:01:08;40.55;;;36.45;;
58516;SDS011;44308;50.810;0.284;2022-11-14T00:03:38;45.00;;;40.72;;
58516;SDS011;44308;50.810;0.284;2022-11-14T00:06:05;85.50;;;66.05;;
58516;SDS011;44308;50.810;0.284;2022-11-14T00:08:31;56.65;;;44.65;;
58516;SDS011;44308;50.810;0.284;2022-11-14T00:10:57;45.08;;;38.58;;
58516;SDS011;44308;50.810;0.284;2022-11-14T00:13:23;42.67;;;38.17;;
58516;SDS011;44308;50.810;0.284;2022-11-14T00:15:50;44.38;;;39.30;;
58516;SDS011;44308;50.810;0.284;2022-11-14T00:18:19;41.67;;;37.35;;
58516;SDS011;44308;50.810;0.284;2022-11-14T00:20:46;40.60;;;36.47;;
58516;SDS011;44308;50.810;0.284;2022-11-14T00:23:13;47.78;;;40.08;;
58516;SDS011;44308;50.810;0.284;2022-11-14T00:25:38;41.97;;;37.72;;
58516;SDS011;44308;50.810;0.284;2022-11-14T00:28:04;44.85;;;40.25;;
58516;SDS011;44308;50.810;0.284;2022-11-14T00:30:30;55.03;;;49.10;;
58516;SDS011;44308;50.810;0.284;2022-11-14T00:32:55;50.50;;;45.40;;
58516;SDS011;44308;50.810;0.284;2022-11-14T00:35:21;45.67;;;41.15;;
58516;SDS011;44308;50.810;0.284;2022-11-14T00:37:47;92.82;;;83.20;;
58516;SDS011;44308;50.810;0.284;2022-11-14T00:40:12;187.07;;;166.95;;
58516;SDS011;44308;50.810;0.284;2022-11-14T00:42:41;60.50;;;52.50;;
58516;SDS011;44308;50.810;0.284;2022-11-14T00:45:07;52.97;;;47.42;;
58516;SDS011;44308;50.810;0.284;2022-11-14T00:47:33;68.70;;;61.83;;
58516;SDS011;44308;50.810;0.284;2022-11-14T00:49:59;89.30;;;80.45;;
58516;SDS011;44308;50.810;0.284;2022-11-14T00:52:24;99.30;;;89.15;;
58516;SDS011;44308;50.810;0.284;2022-11-14T00:54:50;65.10;;;58.58;;
58516;SDS011;44308;50.810;0.284;2022-11-14T00:57:16;63.78;;;57.22;;
58516;SDS011;44308;50.810;0.284;2022-11-14T00:59:41;66.45;;;59.33;;
58516;SDS011;44308;50.810;0.284;2022-11-14T01:02:07;56.13;;;50.70;;
58516;SDS011;44308;50.810;0.284;2022-11-14T01:04:34;50.83;;;44.53;;
58516;SDS011;44308;50.810;0.284;2022-11-14T01:09:44;43.55;;;39.22;;
58516;SDS011;44308;50.810;0.284;2022-11-14T01:12:10;42.65;;;38.10;;
58516;SDS011;44308;50.810;0.284;2022-11-14T01:14:35;79.10;;;71.18;;
58516;SDS011;44308;50.810;0.284;2022-11-14T01:17:01;72.03;;;62.08;;
58516;SDS011;44308;50.810;0.284;2022-11-14T01:19:27;47.13;;;41.85;;
58516;SDS011;44308;50.810;0.284;2022-11-14T01:21:52;43.63;;;37.30;;
58516;SDS011;44308;50.810;0.284;2022-11-14T01:24:18;47.60;;;40.58;;
58516;SDS011;44308;50.810;0.284;2022-11-14T01:26:44;37.80;;;33.60;;
58516;SDS011;44308;50.810;0.284;2022-11-14T01:29:09;56.00;;;48.10;;
58516;SDS011;44308;50.810;0.284;2022-11-14T01:31:35;44.50;;;39.75;;
58516;SDS011;44308;50.810;0.284;2022-11-14T01:34:01;56.63;;;41.53;;
58516;SDS011;44308;50.810;0.284;2022-11-14T01:36:27;117.00;;;100.30;;
58516;SDS011;44308;50.810;0.284;2022-11-14T01:38:53;44.75;;;40.28;;
58516;SDS011;44308;50.810;0.284;2022-11-14T01:41:19;49.15;;;37.10;;
58516;SDS011;44308;50.810;0.284;2022-11-14T01:43:45;41.00;;;36.40;;
58516;SDS011;44308;50.810;0.284;2022-11-14T01:46:13;36.15;;;32.42;;
58516;SDS011;44308;50.810;0.284;2022-11-14T01:52:22;35.20;;;31.52;;
58516;SDS011;44308;50.810;0.284;2022-11-14T01:54:47;34.45;;;30.95;;
58516;SDS011;44308;50.810;0.284;2022-11-14T01:57:16;34.47;;;31.08;;
58516;SDS011;44308;50.810;0.284;2022-11-14T01:59:46;32.08;;;28.75;;
58516;SDS011;44308;50.810;0.284;2022-11-14T02:02:16;35.63;;;29.80;;
58516;SDS011;44308;50.810;0.284;2022-11-14T02:04:46;32.35;;;28.98;;
58516;SDS011;44308;50.810;0.284;2022-11-14T02:07:15;31.77;;;28.52;;
58516;SDS011;44308;50.810;0.284;2022-11-14T02:09:44;33.20;;;30.13;;
58516;SDS011;44308;50.810;0.284;2022-11-14T02:12:11;32.35;;;27.77;;
58516;SDS011;44308;50.810;0.284;2022-11-14T02:14:40;32.65;;;29.17;;
58516;SDS011;44308;50.810;0.284;2022-11-14T02:17:09;33.13;;;30.08;;
58516;SDS011;44308;50.810;0.284;2022-11-14T02:19:42;44.25;;;39.58;;
58516;SDS011;44308;50.810;0.284;2022-11-14T02:22:12;46.45;;;41.47;;
58516;SDS011;44308;50.810;0.284;2022-11-14T02:24:38;59.33;;;52.05;;
58516;SDS011;44308;50.810;0.284;2022-11-14T02:27:04;42.15;;;38.10;;
58516;SDS011;44308;50.810;0.284;2022-11-14T02:29:31;35.55;;;32.17;;
58516;SDS011;44308;50.810;0.284;2022-11-14T02:31:58;38.47;;;32.50;;
58516;SDS011;44308;50.810;0.284;2022-11-14T02:34:24;35.72;;;31.88;;
58516;SDS011;44308;50.810;0.284;2022-11-14T02:36:50;39.85;;;34.83;;
58516;SDS011;44308;50.810;0.284;2022-11-14T02:39:16;37.85;;;33.75;;
58516;SDS011;44308;50.810;0.284;2022-11-14T02:41:42;38.53;;;34.13;;
58516;SDS011;44308;50.810;0.284;2022-11-14T02:44:07;37.30;;;32.58;;
58516;SDS011;44308;50.810;0.284;2022-11-14T02:46:34;40.50;;;35.40;;
58516;SDS011;44308;50.810;0.284;2022-11-14T02:49:00;66.20;;;36.53;;
58516;SDS011;44308;50.810;0.284;2022-11-14T02:51:25;40.05;;;35.55;;
58516;SDS011;44308;50.810;0.284;2022-11-14T02:53:51;40.38;;;36.67;;
58516;SDS011;44308;50.810;0.284;2022-11-14T02:56:17;48.00;;;41.05;;
58516;SDS011;44308;50.810;0.284;2022-11-14T02:58:42;43.90;;;39.17;;
58516;SDS011;44308;50.810;0.284;2022-11-14T03:01:08;41.45;;;37.33;;
58516;SDS011;44308;50.810;0.284;2022-11-14T03:03:34;42.30;;;37.67;;
58516;SDS011;44308;50.810;0.284;2022-11-14T03:06:01;42.22;;;37.55;;
58516;SDS011;44308;50.810;0.284;2022-11-14T03:08:27;39.70;;;35.42;;
58516;SDS011;44308;50.810;0.284;2022-11-14T03:10:53;40.08;;;35.80;;
58516;SDS011;44308;50.810;0.284;2022-11-14T03:13:20;38.72;;;34.53;;
58516;SDS011;44308;50.810;0.284;2022-11-14T03:15:47;41.40;;;35.67;;
58516;SDS011;44308;50.810;0.284;2022-11-14T03:18:12;38.22;;;34.13;;
58516;SDS011;44308;50.810;0.284;2022-11-14T03:20:38;40.30;;;36.13;;
58516;SDS011;44308;50.810;0.284;2022-11-14T03:23:04;38.88;;;34.80;;
58516;SDS011;44308;50.810;0.284;2022-11-14T03:25:30;46.45;;;35.75;;
58516;SDS011;44308;50.810;0.284;2022-11-14T03:27:56;41.38;;;35.33;;
58516;SDS011;44308;50.810;0.284;2022-11-14T03:30:21;43.97;;;34.17;;
58516;SDS011;44308;50.810;0.284;2022-11-14T03:32:47;37.67;;;33.40;;
58516;SDS011;44308;50.810;0.284;2022-11-14T03:35:13;36.25;;;32.40;;
58516;SDS011;44308;50.810;0.284;2022-11-14T03:37:38;35.50;;;31.13;;
58516;SDS011;44308;50.810;0.284;2022-11-14T03:40:04;36.60;;;31.40;;
58516;SDS011;44308;50.810;0.284;2022-11-14T03:42:34;38.72;;;34.85;;
58516;SDS011;44308;50.810;0.284;2022-11-14T03:45:00;35.88;;;32.00;;
58516;SDS011;44308;50.810;0.284;2022-11-14T03:47:26;35.35;;;31.70;;
58516;SDS011;44308;50.810;0.284;2022-11-14T03:49:52;36.08;;;32.40;;
58516;SDS011;44308;50.810;0.284;2022-11-14T03:52:17;35.75;;;31.70;;
58516;SDS011;44308;50.810;0.284;2022-11-14T03:54:44;42.83;;;33.97;;
58516;SDS011;44308;50.810;0.284;2022-11-14T03:57:10;40.85;;;34.63;;
58516;SDS011;44308;50.810;0.284;2022-11-14T03:59:35;41.83;;;33.20;;
58516;SDS011;44308;50.810;0.284;2022-11-14T04:02:01;36.60;;;32.92;;
58516;SDS011;44308;50.810;0.284;2022-11-14T04:04:27;41.92;;;33.42;;
58516;SDS011;44308;50.810;0.284;2022-11-14T04:06:52;39.08;;;34.50;;
58516;SDS011;44308;50.810;0.284;2022-11-14T04:09:18;38.05;;;32.97;;
58516;SDS011;44308;50.810;0.284;2022-11-14T04:11:44;39.40;;;34.67;;
58516;SDS011;44308;50.810;0.284;2022-11-14T04:14:09;36.30;;;32.60;;
58516;SDS011;44308;50.810;0.284;2022-11-14T04:16:35;43.70;;;34.15;;
58516;SDS011;44308;50.810;0.284;2022-11-14T04:19:01;47.00;;;37.08;;
58516;SDS011;44308;50.810;0.284;2022-11-14T04:21:26;43.20;;;36.30;;
58516;SDS011;44308;50.810;0.284;2022-11-14T04:23:52;40.13;;;35.10;;
58516;SDS011;44308;50.810;0.284;2022-11-14T04:26:17;40.60;;;36.30;;
58516;SDS011;44308;50.810;0.284;2022-11-14T04:28:43;50.63;;;35.55;;
58516;SDS011;44308;50.810;0.284;2022-11-14T04:31:09;42.55;;;36.58;;
58516;SDS011;44308;50.810;0.284;2022-11-14T04:33:35;41.05;;;34.25;;
58516;SDS011;44308;50.810;0.284;2022-11-14T04:36:03;37.80;;;34.08;;
58516;SDS011;44308;50.810;0.284;2022-11-14T04:38:28;41.25;;;37.03;;
58516;SDS011;44308;50.810;0.284;2022-11-14T04:40:54;40.17;;;36.00;;
58516;SDS011;44308;50.810;0.284;2022-11-14T04:43:20;39.03;;;34.95;;
58516;SDS011;44308;50.810;0.284;2022-11-14T04:45:47;44.42;;;35.35;;
58516;SDS011;44308;50.810;0.284;2022-11-14T04:48:13;38.40;;;33.65;;
58516;SDS011;44308;50.810;0.284;2022-11-14T04:50:39;38.22;;;34.40;;
58516;SDS011;44308;50.810;0.284;2022-11-14T04:53:04;36.55;;;33.20;;
58516;SDS011;44308;50.810;0.284;2022-11-14T04:58:14;39.58;;;35.53;;
58516;SDS011;44308;50.810;0.284;2022-11-14T05:00:40;35.95;;;32.72;;
58516;SDS011;44308;50.810;0.284;2022-11-14T05:03:07;38.65;;;34.53;;
58516;SDS011;44308;50.810;0.284;2022-11-14T05:05:33;38.22;;;34.00;;
58516;SDS011;44308;50.810;0.284;2022-11-14T05:07:58;42.47;;;35.28;;
58516;SDS011;44308;50.810;0.284;2022-11-14T05:10:24;40.95;;;36.65;;
58516;SDS011;44308;50.810;0.284;2022-11-14T05:12:53;38.65;;;35.08;;
58516;SDS011;44308;50.810;0.284;2022-11-14T05:18:05;44.38;;;35.95;;
58516;SDS011;44308;50.810;0.284;2022-11-14T05:20:31;41.47;;;37.08;;
58516;SDS011;44308;50.810;0.284;2022-11-14T05:23:00;43.67;;;38.10;;
58516;SDS011;44308;50.810;0.284;2022-11-14T05:28:24;43.08;;;38.03;;
58516;SDS011;44308;50.810;0.284;2022-11-14T05:30:50;42.25;;;37.80;;
58516;SDS011;44308;50.810;0.284;2022-11-14T05:33:16;44.70;;;38.78;;
58516;SDS011;44308;50.810;0.284;2022-11-14T05:38:10;45.13;;;37.95;;
58516;SDS011;44308;50.810;0.284;2022-11-14T05:40:36;42.45;;;38.25;;
58516;SDS011;44308;50.810;0.284;2022-11-14T05:43:02;42.65;;;38.00;;
58516;SDS011;44308;50.810;0.284;2022-11-14T05:45:27;44.05;;;39.55;;
58516;SDS011;44308;50.810;0.284;2022-11-14T05:47:54;41.63;;;37.60;;
58516;SDS011;44308;50.810;0.284;2022-11-14T05:50:21;44.22;;;39.17;;
58516;SDS011;44308;50.810;0.284;2022-11-14T05:52:46;39.05;;;34.63;;
58516;SDS011;44308;50.810;0.284;2022-11-14T05:55:12;41.50;;;36.00;;
58516;SDS011;44308;50.810;0.284;2022-11-14T05:57:38;42.97;;;35.65;;
58516;SDS011;44308;50.810;0.284;2022-11-14T06:00:04;50.63;;;45.05;;
58516;SDS011;44308;50.810;0.284;2022-11-14T06:02:30;48.20;;;43.05;;
58516;SDS011;44308;50.810;0.284;2022-11-14T06:07:24;49.08;;;40.80;;
58516;SDS011;44308;50.810;0.284;2022-11-14T06:09:50;50.45;;;38.08;;
58516;SDS011;44308;50.810;0.284;2022-11-14T06:12:16;47.72;;;38.60;;
58516;SDS011;44308;50.810;0.284;2022-11-14T06:14:41;38.70;;;34.70;;
58516;SDS011;44308;50.810;0.284;2022-11-14T06:17:07;40.22;;;36.22;;
58516;SDS011;44308;50.810;0.284;2022-11-14T06:19:33;39.80;;;35.95;;
58516;SDS011;44308;50.810;0.284;2022-11-14T06:21:58;38.83;;;35.20;;
58516;SDS011;44308;50.810;0.284;2022-11-14T06:24:24;37.80;;;34.38;;
58516;SDS011;44308;50.810;0.284;2022-11-14T06:26:50;44.55;;;38.55;;
58516;SDS011;44308;50.810;0.284;2022-11-14T06:29:15;40.17;;;36.35;;
58516;SDS011;44308;50.810;0.284;2022-11-14T06:31:41;64.00;;;52.72;;
58516;SDS011;44308;50.810;0.284;2022-11-14T06:34:07;60.10;;;50.95;;
58516;SDS011;44308;50.810;0.284;2022-11-14T06:36:32;49.50;;;44.33;;
58516;SDS011;44308;50.810;0.284;2022-11-14T06:38:58;44.40;;;39.72;;
58516;SDS011;44308;50.810;0.284;2022-11-14T06:41:24;45.85;;;41.22;;
58516;SDS011;44308;50.810;0.284;2022-11-14T06:43:50;44.38;;;39.83;;
58516;SDS011;44308;50.810;0.284;2022-11-14T06:46:18;41.80;;;37.75;;
58516;SDS011;44308;50.810;0.284;2022-11-14T06:48:45;43.92;;;39.33;;
58516;SDS011;44308;50.810;0.284;2022-11-14T06:51:12;42.20;;;37.67;;
58516;SDS011;44308;50.810;0.284;2022-11-14T06:53:38;56.88;;;36.33;;
58516;SDS011;44308;50.810;0.284;2022-11-14T06:58:41;42.50;;;38.25;;
58516;SDS011;44308;50.810;0.284;2022-11-14T07:01:15;46.28;;;39.03;;
58516;SDS011;44308;50.810;0.284;2022-11-14T07:03:43;39.78;;;36.17;;
58516;SDS011;44308;50.810;0.284;2022-11-14T07:09:20;42.08;;;37.92;;
58516;SDS011;44308;50.810;0.284;2022-11-14T07:11:45;45.08;;;38.25;;
58516;SDS011;44308;50.810;0.284;2022-11-14T07:14:11;44.28;;;39.70;;
58516;SDS011;44308;50.810;0.284;2022-11-14T07:16:42;55.28;;;46.17;;
58516;SDS011;44308;50.810;0.284;2022-11-14T07:19:13;41.75;;;37.50;;
58516;SDS011;44308;50.810;0.284;2022-11-14T07:21:39;49.72;;;43.97;;
58516;SDS011;44308;50.810;0.284;2022-11-14T07:24:05;49.40;;;44.38;;
58516;SDS011;44308;50.810;0.284;2022-11-14T07:26:32;47.58;;;41.58;;
58516;SDS011;44308;50.810;0.284;2022-11-14T07:28:57;42.17;;;37.75;;
58516;SDS011;44308;50.810;0.284;2022-11-14T07:31:23;42.30;;;37.90;;
58516;SDS011;44308;50.810;0.284;2022-11-14T07:33:49;41.58;;;36.95;;
58516;SDS011;44308;50.810;0.284;2022-11-14T07:36:17;40.15;;;35.97;;
58516;SDS011;44308;50.810;0.284;2022-11-14T07:38:43;39.25;;;35.15;;
58516;SDS011;44308;50.810;0.284;2022-11-14T07:41:12;37.35;;;33.42;;
58516;SDS011;44308;50.810;0.284;2022-11-14T07:43:40;33.83;;;30.10;;
58516;SDS011;44308;50.810;0.284;2022-11-14T07:46:09;37.35;;;33.33;;
58516;SDS011;44308;50.810;0.284;2022-11-14T07:48:36;40.60;;;36.60;;
58516;SDS011;44308;50.810;0.284;2022-11-14T07:51:03;39.30;;;34.83;;
58516;SDS011;44308;50.810;0.284;2022-11-14T07:53:30;36.60;;;32.65;;
58516;SDS011;44308;50.810;0.284;2022-11-14T07:58:42;36.28;;;32.72;;
58516;SDS011;44308;50.810;0.284;2022-11-14T08:01:09;31.30;;;28.63;;
58516;SDS011;44308;50.810;0.284;2022-11-14T08:03:37;40.15;;;35.95;;
58516;SDS011;44308;50.810;0.284;2022-11-14T08:06:06;37.28;;;33.53;;
58516;SDS011;44308;50.810;0.284;2022-11-14T08:08:34;36.92;;;33.10;;
58516;SDS011;44308;50.810;0.284;2022-11-14T08:11:00;34.17;;;30.88;;
58516;SDS011;44308;50.810;0.284;2022-11-14T08:13:26;37.35;;;31.50;;
58516;SDS011;44308;50.810;0.284;2022-11-14T08:15:53;35.97;;;29.85;;
58516;SDS011;44308;50.810;0.284;2022-11-14T08:18:19;34.50;;;28.83;;
58516;SDS011;44308;50.810;0.284;2022-11-14T08:20:45;31.85;;;28.17;;
58516;SDS011;44308;50.810;0.284;2022-11-14T08:23:11;30.15;;;27.00;;
58516;SDS011;44308;50.810;0.284;2022-11-14T08:25:39;30.90;;;27.58;;
58516;SDS011;44308;50.810;0.284;2022-11-14T08:28:05;32.53;;;28.20;;
58516;SDS011;44308;50.810;0.284;2022-11-14T08:30:30;33.25;;;28.05;;
58516;SDS011;44308;50.810;0.284;2022-11-14T08:32:56;31.25;;;27.95;;
58516;SDS011;44308;50.810;0.284;2022-11-14T08:35:27;27.65;;;24.98;;
58516;SDS011;44308;50.810;0.284;2022-11-14T08:37:53;27.33;;;24.25;;
58516;SDS011;44308;50.810;0.284;2022-11-14T08:40:18;26.10;;;23.10;;
58516;SDS011;44308;50.810;0.284;2022-11-14T08:42:44;25.77;;;22.70;;
58516;SDS011;44308;50.810;0.284;2022-11-14T08:47:56;27.55;;;22.80;;
58516;SDS011;44308;50.810;0.284;2022-11-14T08:50:21;32.40;;;22.73;;
58516;SDS011;44308;50.810;0.284;2022-11-14T08:52:50;31.27;;;23.83;;
58516;SDS011;44308;50.810;0.284;2022-11-14T08:55:19;29.52;;;23.08;;
58516;SDS011;44308;50.810;0.284;2022-11-14T08:57:45;25.13;;;22.45;;
58516;SDS011;44308;50.810;0.284;2022-11-14T09:00:11;24.85;;;22.20;;
58516;SDS011;44308;50.810;0.284;2022-11-14T09:02:37;30.17;;;22.42;;
58516;SDS011;44308;50.810;0.284;2022-11-14T09:05:03;33.35;;;22.58;;
58516;SDS011;44308;50.810;0.284;2022-11-14T09:07:29;31.63;;;21.77;;
58516;SDS011;44308;50.810;0.284;2022-11-14T09:09:55;27.50;;;20.27;;
58516;SDS011;44308;50.810;0.284;2022-11-14T09:12:20;30.77;;;21.27;;
58516;SDS011;44308;50.810;0.284;2022-11-14T09:14:46;23.77;;;18.10;;
58516;SDS011;44308;50.810;0.284;2022-11-14T09:17:12;26.75;;;18.83;;
58516;SDS011;44308;50.810;0.284;2022-11-14T09:19:37;23.17;;;15.63;;
58516;SDS011;44308;50.810;0.284;2022-11-14T09:22:03;20.08;;;13.77;;
58516;SDS011;44308;50.810;0.284;2022-11-14T09:24:29;16.90;;;12.90;;
58516;SDS011;44308;50.810;0.284;2022-11-14T09:29:39;14.30;;;10.35;;
58516;SDS011;44308;50.810;0.284;2022-11-14T09:32:05;13.60;;;10.65;;
58516;SDS011;44308;50.810;0.284;2022-11-14T09:34:31;11.25;;;9.93;;
58516;SDS011;44308;50.810;0.284;2022-11-14T09:40:19;16.05;;;9.98;;
58516;SDS011;44308;50.810;0.284;2022-11-14T09:45:39;11.45;;;9.52;;
58516;SDS011;44308;50.810;0.284;2022-11-14T09:48:14;16.58;;;8.32;;
58516;SDS011;44308;50.810;0.284;2022-11-14T09:50:45;13.27;;;7.60;;
58516;SDS011;44308;50.810;0.284;2022-11-14T09:53:19;15.20;;;8.07;;
58516;SDS011;44308;50.810;0.284;2022-11-14T09:55:57;12.48;;;8.23;;
58516;SDS011;44308;50.810;0.284;2022-11-14T09:58:23;12.40;;;7.90;;
58516;SDS011;44308;50.810;0.284;2022-11-14T10:00:53;12.93;;;9.13;;
58516;SDS011;44308;50.810;0.284;2022-11-14T10:03:31;18.45;;;7.45;;
58516;SDS011;44308;50.810;0.284;2022-11-14T10:06:29;10.00;;;7.18;;
58516;SDS011;44308;50.810;0.284;2022-11-14T10:09:05;8.52;;;6.38;;
58516;SDS011;44308;50.810;0.284;2022-11-14T10:11:49;16.88;;;7.40;;
58516;SDS011;44308;50.810;0.284;2022-11-14T10:14:40;12.48;;;8.98;;
58516;SDS011;44308;50.810;0.284;2022-11-14T10:17:36;13.95;;;8.77;;
58516;SDS011;44308;50.810;0.284;2022-11-14T10:28:46;8.95;;;6.30;;
58516;SDS011;44308;50.810;0.284;2022-11-14T10:34:12;11.23;;;6.13;;
58516;SDS011;44308;50.810;0.284;2022-11-14T10:36:46;7.45;;;6.20;;
58516;SDS011;44308;50.810;0.284;2022-11-14T10:39:18;11.23;;;7.78;;
58516;SDS011;44308;50.810;0.284;2022-11-14T10:41:46;12.20;;;7.03;;
58516;SDS011;44308;50.810;0.284;2022-11-14T10:44:17;16.10;;;6.57;;
58516;SDS011;44308;50.810;0.284;2022-11-14T10:49:20;9.02;;;7.15;;
58516;SDS011;44308;50.810;0.284;2022-11-14T10:51:54;12.85;;;7.68;;
58516;SDS011;44308;50.810;0.284;2022-11-14T10:54:29;10.77;;;7.20;;
58516;SDS011;44308;50.810;0.284;2022-11-14T10:59:45;11.45;;;7.18;;
58516;SDS011;44308;50.810;0.284;2022-11-14T11:02:11;12.65;;;8.38;;
58516;SDS011;44308;50.810;0.284;2022-11-14T11:04:38;10.05;;;7.95;;
58516;SDS011;44308;50.810;0.284;2022-11-14T11:09:31;13.38;;;8.90;;
58516;SDS011;44308;50.810;0.284;2022-11-14T11:12:18;12.93;;;8.65;;
58516;SDS011;44308;50.810;0.284;2022-11-14T11:14:47;11.98;;;9.27;;
58516;SDS011;44308;50.810;0.284;2022-11-14T11:17:19;12.93;;;8.95;;
58516;SDS011;44308;50.810;0.284;2022-11-14T11:19:47;13.10;;;9.25;;
58516;SDS011;44308;50.810;0.284;2022-11-14T11:22:30;12.07;;;9.15;;
58516;SDS011;44308;50.810;0.284;2022-11-14T11:28:15;11.98;;;9.52;;
58516;SDS011;44308;50.810;0.284;2022-11-14T11:30:57;11.20;;;9.13;;
58516;SDS011;44308;50.810;0.284;2022-11-14T11:33:28;12.93;;;10.35;;
58516;SDS011;44308;50.810;0.284;2022-11-14T11:35:58;14.65;;;9.70;;
58516;SDS011;44308;50.810;0.284;2022-11-14T11:38:27;11.77;;;10.30;;
58516;SDS011;44308;50.810;0.284;2022-11-14T11:41:01;12.23;;;10.60;;
58516;SDS011;44308;50.810;0.284;2022-11-14T11:46:10;15.20;;;10.47;;
58516;SDS011;44308;50.810;0.284;2022-11-14T11:48:40;14.55;;;9.85;;
58516;SDS011;44308;50.810;0.284;2022-11-14T11:51:11;11.60;;;9.73;;
58516;SDS011;44308;50.810;0.284;2022-11-14T11:53:45;23.73;;;10.68;;
58516;SDS011;44308;50.810;0.284;2022-11-14T11:58:57;17.90;;;11.38;;
58516;SDS011;44308;50.810;0.284;2022-11-14T12:01:40;13.30;;;10.93;;
58516;SDS011;44308;50.810;0.284;2022-11-14T12:04:06;12.35;;;10.13;;
58516;SDS011;44308;50.810;0.284;2022-11-14T12:09:25;17.63;;;10.07;;
58516;SDS011;44308;50.810;0.284;2022-11-14T12:11:58;14.40;;;9.00;;
58516;SDS011;44308;50.810;0.284;2022-11-14T12:14:40;13.27;;;8.85;;
58516;SDS011;44308;50.810;0.284;2022-11-14T12:28:38;11.20;;;7.07;;
58516;SDS011;44308;50.810;0.284;2022-11-14T12:31:26;10.20;;;7.57;;
58516;SDS011;44308;50.810;0.284;2022-11-14T12:33:58;20.08;;;7.43;;
58516;SDS011;44308;50.810;0.284;2022-11-14T12:39:34;10.68;;;6.80;;
58516;SDS011;44308;50.810;0.284;2022-11-14T12:42:00;11.27;;;6.93;;
58516;SDS011;44308;50.810;0.284;2022-11-14T12:47:11;12.65;;;6.80;;
58516;SDS011;44308;50.810;0.284;2022-11-14T13:00:37;9.77;;;7.00;;
58516;SDS011;44308;50.810;0.284;2022-11-14T13:06:17;12.23;;;6.90;;
58516;SDS011;44308;50.810;0.284;2022-11-14T13:11:34;10.07;;;6.60;;
58516;SDS011;44308;50.810;0.284;2022-11-14T13:14:19;14.50;;;6.97;;
58516;SDS011;44308;50.810;0.284;2022-11-14T13:17:08;8.85;;;7.13;;
58516;SDS011;44308;50.810;0.284;2022-11-14T13:19:52;9.73;;;7.03;;
58516;SDS011;44308;50.810;0.284;2022-11-14T13:22:40;17.50;;;6.57;;
58516;SDS011;44308;50.810;0.284;2022-11-14T13:27:35;10.07;;;6.47;;
58516;SDS011;44308;50.810;0.284;2022-11-14T13:30:02;12.10;;;6.43;;
58516;SDS011;44308;50.810;0.284;2022-11-14T13:38:40;7.93;;;6.30;;
58516;SDS011;44308;50.810;0.284;2022-11-14T13:41:24;11.82;;;7.00;;
58516;SDS011;44308;50.810;0.284;2022-11-14T13:51:31;14.50;;;6.78;;
58516;SDS011;44308;50.810;0.284;2022-11-14T13:53:58;10.63;;;6.57;;
58516;SDS011;44308;50.810;0.284;2022-11-14T13:56:43;9.48;;;6.43;;
58516;SDS011;44308;50.810;0.284;2022-11-14T14:16:57;14.02;;;6.68;;
58516;SDS011;44308;50.810;0.284;2022-11-14T14:19:39;15.40;;;6.45;;
58516;SDS011;44308;50.810;0.284;2022-11-14T14:27:59;12.15;;;6.80;;
58516;SDS011;44308;50.810;0.284;2022-11-14T14:30:38;12.20;;;7.07;;
58516;SDS011;44308;50.810;0.284;2022-11-14T14:35:36;11.15;;;6.95;;
58516;SDS011;44308;50.810;0.284;2022-11-14T14:38:12;8.18;;;6.35;;
58516;SDS011;44308;50.810;0.284;2022-11-14T14:40:50;16.38;;;6.65;;
58516;SDS011;44308;50.810;0.284;2022-11-14T14:43:27;11.70;;;7.30;;
58516;SDS011;44308;50.810;0.284;2022-11-14T14:45:56;12.23;;;6.85;;
58516;SDS011;44308;50.810;0.284;2022-11-14T14:48:24;15.88;;;6.57;;
58516;SDS011;44308;50.810;0.284;2022-11-14T14:50:56;11.48;;;6.43;;
58516;SDS011;44308;50.810;0.284;2022-11-14T14:53:28;16.63;;;7.47;;
58516;SDS011;44308;50.810;0.284;2022-11-14T14:55:56;16.17;;;6.20;;
58516;SDS011;44308;50.810;0.284;2022-11-14T14:58:31;12.23;;;6.07;;
58516;SDS011;44308;50.810;0.284;2022-11-14T15:01:02;12.52;;;5.78;;
58516;SDS011;44308;50.810;0.284;2022-11-14T15:03:31;12.05;;;6.28;;
58516;SDS011;44308;50.810;0.284;2022-11-14T15:06:01;8.88;;;5.90;;
58516;SDS011;44308;50.810;0.284;2022-11-14T15:08:30;11.60;;;6.35;;
58516;SDS011;44308;50.810;0.284;2022-11-14T15:11:01;13.27;;;6.47;;
58516;SDS011;44308;50.810;0.284;2022-11-14T15:13:28;9.88;;;6.50;;
58516;SDS011;44308;50.810;0.284;2022-11-14T15:18:42;26.20;;;7.40;;
58516;SDS011;44308;50.810;0.284;2022-11-14T15:21:29;13.98;;;7.47;;
58516;SDS011;44308;50.810;0.284;2022-11-14T15:24:14;10.57;;;7.57;;
58516;SDS011;44308;50.810;0.284;2022-11-14T15:26:45;10.13;;;7.40;;
58516;SDS011;44308;50.810;0.284;2022-11-14T15:32:03;19.60;;;8.68;;
58516;SDS011;44308;50.810;0.284;2022-11-14T15:34:36;14.27;;;8.73;;
58516;SDS011;44308;50.810;0.284;2022-11-14T15:39:39;13.48;;;9.52;;
58516;SDS011;44308;50.810;0.284;2022-11-14T15:42:18;13.30;;;8.48;;
58516;SDS011;44308;50.810;0.284;2022-11-14T15:48:27;14.15;;;8.73;;
58516;SDS011;44308;50.810;0.284;2022-11-14T15:50:53;18.48;;;8.25;;
58516;SDS011;44308;50.810;0.284;2022-11-14T15:55:44;12.30;;;8.30;;
58516;SDS011;44308;50.810;0.284;2022-11-14T15:58:10;21.27;;;9.80;;
58516;SDS011;44308;50.810;0.284;2022-11-14T16:00:43;16.38;;;8.98;;
58516;SDS011;44308;50.810;0.284;2022-11-14T16:03:16;14.80;;;9.00;;
58516;SDS011;44308;50.810;0.284;2022-11-14T16:05:44;12.65;;;8.35;;
58516;SDS011;44308;50.810;0.284;2022-11-14T16:08:10;15.75;;;8.73;;
58516;SDS011;44308;50.810;0.284;2022-11-14T16:10:37;16.05;;;9.00;;
58516;SDS011;44308;50.810;0.284;2022-11-14T16:13:03;16.05;;;9.10;;
58516;SDS011;44308;50.810;0.284;2022-11-14T16:18:17;11.68;;;9.10;;
58516;SDS011;44308;50.810;0.284;2022-11-14T16:20:43;20.85;;;9.85;;
58516;SDS011;44308;50.810;0.284;2022-11-14T16:23:10;11.45;;;8.95;;
58516;SDS011;44308;50.810;0.284;2022-11-14T16:25:38;15.18;;;8.93;;
58516;SDS011;44308;50.810;0.284;2022-11-14T16:28:04;13.57;;;9.93;;
58516;SDS011;44308;50.810;0.284;2022-11-14T16:30:30;10.35;;;8.25;;
58516;SDS011;44308;50.810;0.284;2022-11-14T16:32:55;10.73;;;8.55;;
58516;SDS011;44308;50.810;0.284;2022-11-14T16:39:02;14.32;;;9.52;;
58516;SDS011;44308;50.810;0.284;2022-11-14T16:41:30;15.15;;;9.55;;
58516;SDS011;44308;50.810;0.284;2022-11-14T16:43:56;19.27;;;9.38;;
58516;SDS011;44308;50.810;0.284;2022-11-14T16:46:23;24.35;;;19.95;;
58516;SDS011;44308;50.810;0.284;2022-11-14T16:48:49;25.38;;;16.48;;
58516;SDS011;44308;50.810;0.284;2022-11-14T16:51:15;33.55;;;25.02;;
58516;SDS011;44308;50.810;0.284;2022-11-14T16:53:41;18.67;;;13.48;;
58516;SDS011;44308;50.810;0.284;2022-11-14T16:59:11;14.80;;;10.63;;
58516;SDS011;44308;50.810;0.284;2022-11-14T17:01:37;32.15;;;19.73;;
58516;SDS011;44308;50.810;0.284;2022-11-14T17:04:03;25.75;;;11.48;;
58516;SDS011;44308;50.810;0.284;2022-11-14T17:06:31;21.00;;;11.95;;
58516;SDS011;44308;50.810;0.284;2022-11-14T17:08:57;16.15;;;11.38;;
58516;SDS011;44308;50.810;0.284;2022-11-14T17:11:24;18.85;;;13.13;;
58516;SDS011;44308;50.810;0.284;2022-11-14T17:13:50;13.38;;;11.70;;
58516;SDS011;44308;50.810;0.284;2022-11-14T17:16:16;17.42;;;11.23;;
58516;SDS011;44308;50.810;0.284;2022-11-14T17:18:42;14.35;;;12.65;;
58516;SDS011;44308;50.810;0.284;2022-11-14T17:21:09;17.52;;;12.65;;
58516;SDS011;44308;50.810;0.284;2022-11-14T17:23:38;15.18;;;11.80;;